createdAt,value
2023-05-13T00:01:56.676Z,5.43
2023-05-13T00:04:44.572Z,5.10
2023-05-13T00:07:31.063Z,4.43
2023-05-13T00:10:17.605Z,5.30
2023-05-13T00:13:04.447Z,4.93
2023-05-13T00:15:51.230Z,5.00
2023-05-13T00:18:37.864Z,5.30
2023-05-13T00:21:26.238Z,5.83
2023-05-13T00:24:12.844Z,5.13
2023-05-13T00:27:00.163Z,5.03
2023-05-13T00:29:46.709Z,5.00
2023-05-13T00:32:33.239Z,5.27
2023-05-13T00:35:20.290Z,5.70
2023-05-13T00:38:08.477Z,4.90
2023-05-13T00:40:54.815Z,4.60
2023-05-13T00:43:41.328Z,5.00
2023-05-13T00:46:33.078Z,5.00
2023-05-13T00:49:19.767Z,5.10
2023-05-13T00:52:07.101Z,5.23
2023-05-13T00:54:54.895Z,5.80
2023-05-13T00:57:41.607Z,4.93
2023-05-13T01:00:28.832Z,5.50
2023-05-13T01:03:21.055Z,5.10
2023-05-13T01:06:12.731Z,5.70
2023-05-13T01:09:08.481Z,5.87
2023-05-13T01:11:57.155Z,5.83
2023-05-13T01:14:50.487Z,5.60
2023-05-13T01:17:43.687Z,5.23
2023-05-13T01:20:32.099Z,5.57
2023-05-13T01:23:20.221Z,5.33
2023-05-13T01:26:06.891Z,5.10
2023-05-13T01:28:53.870Z,5.57
2023-05-13T01:31:42.475Z,5.40
2023-05-13T01:34:29.828Z,5.73
2023-05-13T01:37:16.468Z,5.67
2023-05-13T01:40:14.297Z,5.97
2023-05-13T01:43:07.362Z,6.37
2023-05-13T01:45:53.833Z,5.83
2023-05-13T01:48:40.180Z,5.87
2023-05-13T01:51:26.541Z,5.70
2023-05-13T01:54:12.928Z,5.10
2023-05-13T01:57:00.703Z,5.97
2023-05-13T01:59:47.602Z,6.07
2023-05-13T02:02:33.980Z,6.37
2023-05-13T02:05:20.967Z,5.87
2023-05-13T02:08:08.052Z,5.90
2023-05-13T02:10:57.776Z,5.63
2023-05-13T02:13:45.972Z,6.17
2023-05-13T02:16:32.991Z,5.70
2023-05-13T02:19:19.829Z,6.27
2023-05-13T02:22:06.376Z,5.83
2023-05-13T02:24:53.345Z,5.40
2023-05-13T02:27:39.735Z,6.23
2023-05-13T02:30:27.893Z,6.47
2023-05-13T02:33:14.648Z,6.00
2023-05-13T02:36:01.685Z,5.70
2023-05-13T02:38:48.127Z,5.70
2023-05-13T02:41:34.454Z,5.80
2023-05-13T02:44:20.944Z,6.03
2023-05-13T02:47:08.620Z,5.90
2023-05-13T02:49:56.185Z,5.87
2023-05-13T02:52:43.047Z,6.13
2023-05-13T02:55:29.771Z,5.80
2023-05-13T02:58:16.484Z,5.53
2023-05-13T03:01:02.987Z,5.43
2023-05-13T03:03:51.517Z,6.07
2023-05-13T03:06:38.305Z,6.23
2023-05-13T03:09:24.708Z,5.90
2023-05-13T03:12:11.230Z,5.73
2023-05-13T03:14:57.606Z,6.03
2023-05-13T03:17:44.544Z,5.77
2023-05-13T03:20:33.354Z,5.70
2023-05-13T03:23:20.223Z,5.60
2023-05-13T03:26:06.715Z,6.23
2023-05-13T03:28:53.174Z,5.90
2023-05-13T03:31:39.834Z,5.87
2023-05-13T03:34:26.280Z,6.13
2023-05-13T03:37:14.148Z,6.10
2023-05-13T03:40:00.818Z,5.60
2023-05-13T03:42:47.079Z,5.17
2023-05-13T03:45:33.627Z,5.80
2023-05-13T03:48:21.285Z,5.60
2023-05-13T03:51:08.028Z,6.10
2023-05-13T03:53:56.186Z,5.70
2023-05-13T03:56:43.041Z,5.70
2023-05-13T03:59:29.435Z,5.80
2023-05-13T04:02:15.778Z,5.63
2023-05-13T04:05:02.728Z,5.53
2023-05-13T04:07:49.664Z,5.63
2023-05-13T04:10:37.271Z,5.10
2023-05-13T04:13:23.694Z,5.43
2023-05-13T04:16:10.236Z,5.13
2023-05-13T04:18:56.601Z,5.40
2023-05-13T04:21:43.530Z,6.10
2023-05-13T04:24:29.873Z,6.70
2023-05-13T04:27:17.536Z,5.70
2023-05-13T04:30:04.394Z,5.70
2023-05-13T04:32:51.400Z,6.00
2023-05-13T04:35:38.233Z,5.90
2023-05-13T04:38:24.767Z,5.20
2023-05-13T04:41:11.213Z,6.10
2023-05-13T04:43:58.873Z,5.70
2023-05-13T04:46:45.589Z,5.53
2023-05-13T04:49:32.414Z,5.60
2023-05-13T04:52:19.658Z,5.40
2023-05-13T04:55:06.507Z,5.23
2023-05-13T04:57:53.216Z,5.57
2023-05-13T05:00:41.056Z,5.63
2023-05-13T05:03:27.757Z,5.20
2023-05-13T05:06:14.052Z,5.40
2023-05-13T05:09:00.791Z,5.73
2023-05-13T05:11:47.265Z,5.43
2023-05-13T05:14:34.079Z,5.73
2023-05-13T05:17:22.430Z,6.40
2023-05-13T05:20:10.145Z,6.03
2023-05-13T05:22:56.924Z,6.10
2023-05-13T05:25:43.369Z,5.37
2023-05-13T05:28:29.726Z,5.40
2023-05-13T05:31:16.337Z,5.60
2023-05-13T05:34:04.363Z,5.50
2023-05-13T05:36:50.726Z,4.87
2023-05-13T05:39:37.214Z,4.97
2023-05-13T05:42:23.691Z,5.20
2023-05-13T05:45:10.796Z,5.50
2023-05-13T05:47:57.856Z,5.20
2023-05-13T05:50:45.766Z,4.53
2023-05-13T05:53:33.015Z,4.97
2023-05-13T05:56:19.909Z,5.30
2023-05-13T05:59:06.836Z,5.10
2023-05-13T06:01:53.394Z,4.87
2023-05-13T06:04:41.814Z,4.83
2023-05-13T06:07:29.667Z,4.90
2023-05-13T06:10:16.406Z,4.43
2023-05-13T06:13:02.840Z,4.80
2023-05-13T06:15:49.154Z,5.37
2023-05-13T06:18:36.216Z,5.50
2023-05-13T06:21:22.609Z,4.60
2023-05-13T06:24:10.824Z,4.53
2023-05-13T06:26:57.507Z,4.00
2023-05-13T06:29:43.926Z,4.33
2023-05-13T06:32:30.469Z,4.20
2023-05-13T06:35:16.965Z,3.83
2023-05-13T06:38:03.700Z,3.90
2023-05-13T06:40:51.334Z,4.17
2023-05-13T06:43:38.818Z,3.73
2023-05-13T06:46:25.577Z,4.07
2023-05-13T06:49:11.815Z,4.40
2023-05-13T06:51:58.102Z,4.40
2023-05-13T06:54:44.535Z,4.20
2023-05-13T06:57:41.838Z,4.40
2023-05-13T07:00:29.566Z,4.67
2023-05-13T07:03:16.245Z,4.27
2023-05-13T07:06:03.184Z,3.60
2023-05-13T07:08:49.688Z,4.00
2023-05-13T07:11:36.216Z,4.17
2023-05-13T07:14:26.112Z,4.30
2023-05-13T07:17:12.756Z,4.37
2023-05-13T07:19:59.228Z,4.30
2023-05-13T07:22:45.706Z,4.33
2023-05-13T07:25:32.208Z,4.97
2023-05-13T07:28:19.305Z,4.47
2023-05-13T07:31:07.541Z,4.27
2023-05-13T07:33:54.557Z,4.10
2023-05-13T07:36:41.728Z,4.47
2023-05-13T07:39:28.330Z,4.43
2023-05-13T07:42:15.350Z,4.67
2023-05-13T07:45:01.837Z,4.00
2023-05-13T07:47:49.674Z,4.17
2023-05-13T07:50:36.580Z,4.37
2023-05-13T07:53:23.400Z,4.63
2023-05-13T07:56:10.134Z,4.00
2023-05-13T07:58:56.545Z,4.10
2023-05-13T08:01:43.908Z,4.30
2023-05-13T08:04:31.731Z,4.07
2023-05-13T08:07:18.299Z,4.00
2023-05-13T08:10:05.448Z,4.40
2023-05-13T08:12:57.536Z,4.80
2023-05-13T08:15:44.479Z,4.50
2023-05-13T08:18:31.341Z,4.70
2023-05-13T08:21:19.410Z,4.50
2023-05-13T08:24:06.122Z,4.37
2023-05-13T08:26:52.558Z,4.60
2023-05-13T08:29:39.363Z,4.43
2023-05-13T08:32:25.895Z,4.47
2023-05-13T08:35:12.687Z,4.30
2023-05-13T08:38:00.512Z,4.50
2023-05-13T08:40:47.672Z,4.10
2023-05-13T08:43:34.934Z,4.63
2023-05-13T08:46:25.173Z,3.60
2023-05-13T08:49:12.389Z,4.07
2023-05-13T08:51:59.120Z,4.67
2023-05-13T08:54:47.415Z,3.90
2023-05-13T08:57:34.132Z,4.50
2023-05-13T09:00:21.876Z,3.40
2023-05-13T09:03:09.303Z,4.47
2023-05-13T09:05:56.476Z,4.70
2023-05-13T09:08:43.229Z,4.73
2023-05-13T09:11:33.457Z,4.43
2023-05-13T09:14:20.798Z,4.70
2023-05-13T09:17:07.858Z,5.07
2023-05-13T09:19:54.191Z,4.70
2023-05-13T09:22:47.480Z,5.07
2023-05-13T09:25:34.606Z,4.10
2023-05-13T09:28:23.641Z,5.30
2023-05-13T09:31:10.329Z,4.73
2023-05-13T09:33:57.899Z,5.00
2023-05-13T09:36:44.956Z,5.07
2023-05-13T09:39:34.104Z,4.53
2023-05-13T09:42:21.998Z,4.43
2023-05-13T09:45:11.928Z,4.13
2023-05-13T09:47:58.408Z,3.83
2023-05-13T09:50:49.918Z,3.83
2023-05-13T09:53:36.418Z,3.70
2023-05-13T09:56:25.011Z,3.87
2023-05-13T09:59:11.843Z,3.63
2023-05-13T10:02:04.896Z,3.90
2023-05-13T10:04:51.948Z,3.90
2023-05-13T10:07:39.393Z,4.07
2023-05-13T10:10:26.100Z,3.87
2023-05-13T10:13:15.846Z,4.30
2023-05-13T10:16:02.349Z,3.70
2023-05-13T10:18:50.277Z,4.00
2023-05-13T10:21:38.128Z,3.90
2023-05-13T10:24:27.084Z,3.80
2023-05-13T10:27:14.416Z,4.40
2023-05-13T10:30:03.656Z,3.50
2023-05-13T10:32:51.807Z,4.43
2023-05-13T10:35:44.377Z,4.03
2023-05-13T10:38:48.183Z,3.90
2023-05-13T10:42:04.464Z,4.67
2023-05-13T10:44:55.548Z,4.13
2023-05-13T10:47:42.001Z,4.03
2023-05-13T10:50:29.315Z,4.10
2023-05-13T10:53:22.091Z,4.20
2023-05-13T10:56:08.786Z,4.30
2023-05-13T10:58:59.964Z,4.20
2023-05-13T11:01:47.300Z,4.00
2023-05-13T11:04:33.936Z,3.53
2023-05-13T11:07:20.287Z,4.00
2023-05-13T11:10:26.210Z,3.80
2023-05-13T11:13:25.560Z,3.97
2023-05-13T11:16:14.572Z,3.50
2023-05-13T11:19:03.644Z,4.07
2023-05-13T11:21:53.002Z,3.77
2023-05-13T11:24:40.371Z,3.40
2023-05-13T11:27:28.659Z,3.87
2023-05-13T11:30:24.093Z,3.33
2023-05-13T11:33:12.410Z,3.60
2023-05-13T11:35:59.586Z,3.50
2023-05-13T11:38:45.885Z,3.90
2023-05-13T11:41:33.429Z,4.17
2023-05-13T11:44:22.660Z,4.20
2023-05-13T11:47:09.290Z,4.00
2023-05-13T11:49:55.972Z,3.97
2023-05-13T11:52:42.967Z,3.57
2023-05-13T11:55:31.162Z,4.03
2023-05-13T11:58:17.820Z,4.03
2023-05-13T12:01:05.869Z,4.43
2023-05-13T12:04:02.509Z,4.23
2023-05-13T12:06:49.397Z,4.53
2023-05-13T12:09:36.228Z,4.27
2023-05-13T12:12:22.994Z,4.37
2023-05-13T12:15:11.947Z,4.03
2023-05-13T12:18:00.300Z,3.67
2023-05-13T12:20:47.104Z,3.30
2023-05-13T12:23:40.744Z,4.10
2023-05-13T12:26:27.567Z,3.97
2023-05-13T12:29:14.636Z,4.07
2023-05-13T12:32:06.048Z,3.93
2023-05-13T12:34:54.304Z,3.87
2023-05-13T12:37:41.366Z,4.00
2023-05-13T12:40:28.252Z,3.97
2023-05-13T12:43:15.491Z,4.00
2023-05-13T12:46:01.895Z,4.00
2023-05-13T12:48:48.321Z,4.07
2023-05-13T12:51:36.112Z,4.00
2023-05-13T12:54:22.718Z,3.53
2023-05-13T12:57:10.110Z,4.03
2023-05-13T12:59:56.562Z,3.90
2023-05-13T13:02:43.243Z,4.20
2023-05-13T13:05:30.174Z,3.90
2023-05-13T13:08:18.131Z,3.80
2023-05-13T13:11:05.257Z,4.03
2023-05-13T13:13:51.793Z,3.90
2023-05-13T13:16:38.229Z,4.23
2023-05-13T13:19:24.790Z,3.87
2023-05-13T13:22:11.677Z,4.20
2023-05-13T13:24:59.805Z,3.97
2023-05-13T13:27:46.303Z,4.20
2023-05-13T13:30:32.722Z,3.97
2023-05-13T13:33:20.909Z,3.63
2023-05-13T13:36:08.172Z,3.47
2023-05-13T13:38:54.831Z,3.50
2023-05-13T13:41:43.287Z,3.43
2023-05-13T13:44:30.017Z,3.60
2023-05-13T13:47:16.673Z,3.70
2023-05-13T13:50:03.615Z,4.07
2023-05-13T13:52:52.352Z,3.67
2023-05-13T13:55:38.948Z,3.40
2023-05-13T13:58:26.672Z,3.23
2023-05-13T14:01:13.180Z,2.93
2023-05-13T14:04:12.015Z,3.33
2023-05-13T14:06:58.684Z,3.27
2023-05-13T14:09:45.145Z,3.63
2023-05-13T14:12:31.610Z,3.77
2023-05-13T14:15:19.438Z,3.70
2023-05-13T14:18:06.708Z,3.50
2023-05-13T14:20:53.519Z,3.60
2023-05-13T14:23:42.318Z,3.70
2023-05-13T14:26:29.046Z,3.67
2023-05-13T14:29:15.990Z,3.63
2023-05-13T14:32:04.255Z,3.80
2023-05-13T14:34:50.632Z,3.20
2023-05-13T14:37:37.148Z,3.07
2023-05-13T14:40:23.970Z,3.57
2023-05-13T14:43:10.521Z,3.23
2023-05-13T14:45:57.164Z,3.47
2023-05-13T14:48:45.163Z,3.07
2023-05-13T14:51:31.831Z,3.10
2023-05-13T14:54:18.678Z,3.00
2023-05-13T14:57:06.613Z,3.17
2023-05-13T14:59:53.057Z,3.20
2023-05-13T15:02:39.814Z,3.57
2023-05-13T15:05:27.902Z,3.20
2023-05-13T15:08:14.696Z,3.23
2023-05-13T15:11:01.374Z,3.70
2023-05-13T15:13:48.200Z,3.07
2023-05-13T15:16:34.804Z,3.07
2023-05-13T15:19:21.800Z,3.07
2023-05-13T15:22:09.507Z,2.80
2023-05-13T15:24:56.007Z,3.00
2023-05-13T15:27:43.010Z,3.07
2023-05-13T15:30:30.945Z,3.30
2023-05-13T15:33:17.936Z,3.40
2023-05-13T15:36:05.749Z,3.00
2023-05-13T15:38:53.972Z,3.00
2023-05-13T15:41:41.380Z,3.00
2023-05-13T15:44:28.012Z,2.60
2023-05-13T15:47:14.463Z,3.00
2023-05-13T15:50:01.483Z,3.17
2023-05-13T15:52:48.444Z,2.43
2023-05-13T15:55:37.423Z,3.07
2023-05-13T15:58:23.819Z,2.73
2023-05-13T16:01:11.036Z,2.43
2023-05-13T16:03:57.750Z,2.53
2023-05-13T16:06:44.144Z,2.80
2023-05-13T16:09:30.594Z,2.53
2023-05-13T16:12:18.475Z,2.53
2023-05-13T16:15:05.607Z,2.43
2023-05-13T16:17:52.393Z,2.67
2023-05-13T16:20:39.387Z,2.63
2023-05-13T16:23:25.912Z,2.60
2023-05-13T16:26:12.308Z,2.20
2023-05-13T16:29:00.050Z,2.47
2023-05-13T16:31:46.535Z,2.43
2023-05-13T16:34:33.341Z,2.00
2023-05-13T16:37:19.983Z,2.37
2023-05-13T16:40:07.821Z,2.60
2023-05-13T16:42:55.042Z,2.40
2023-05-13T16:45:45.428Z,2.93
2023-05-13T16:48:32.293Z,3.27
2023-05-13T16:51:18.602Z,2.40
2023-05-13T16:54:04.982Z,2.43
2023-05-13T16:56:51.964Z,2.63
2023-05-13T16:59:38.315Z,2.47
2023-05-13T17:02:26.514Z,2.77
2023-05-13T17:05:13.536Z,2.37
2023-05-13T17:08:00.183Z,2.13
2023-05-13T17:10:47.094Z,3.17
2023-05-13T17:13:33.769Z,2.30
2023-05-13T17:16:20.890Z,2.10
2023-05-13T17:19:09.081Z,2.10
2023-05-13T17:21:55.834Z,1.93
2023-05-13T17:24:42.306Z,2.20
2023-05-13T17:27:28.689Z,2.20
2023-05-13T17:30:16.204Z,2.50
2023-05-13T17:33:03.049Z,2.20
2023-05-13T17:35:52.464Z,2.23
2023-05-13T17:38:39.085Z,2.13
2023-05-13T17:41:25.913Z,2.57
2023-05-13T17:44:12.985Z,2.27
2023-05-13T17:46:59.293Z,1.97
2023-05-13T17:49:45.626Z,2.70
2023-05-13T17:52:33.515Z,2.37
2023-05-13T17:55:20.175Z,2.87
2023-05-13T17:58:06.610Z,2.73
2023-05-13T18:00:53.325Z,2.03
2023-05-13T18:03:40.201Z,2.43
2023-05-13T18:06:26.663Z,2.30
2023-05-13T18:09:14.430Z,2.63
2023-05-13T18:12:01.173Z,2.70
2023-05-13T18:14:48.091Z,2.53
2023-05-13T18:17:34.595Z,3.03
2023-05-13T18:20:22.531Z,2.53
2023-05-13T18:23:09.205Z,3.10
2023-05-13T18:25:57.167Z,2.37
2023-05-13T18:28:44.897Z,2.70
2023-05-13T18:31:34.770Z,2.73
2023-05-13T18:34:21.594Z,2.50
2023-05-13T18:37:08.031Z,3.03
2023-05-13T18:39:54.268Z,2.73
2023-05-13T18:42:42.091Z,2.93
2023-05-13T18:45:29.023Z,2.73
2023-05-13T18:48:15.926Z,2.80
2023-05-13T18:51:02.268Z,2.30
2023-05-13T18:53:48.907Z,2.47
2023-05-13T18:56:36.206Z,2.50
2023-05-13T18:59:24.274Z,2.47
2023-05-13T19:02:11.475Z,2.73
2023-05-13T19:04:57.921Z,2.90
2023-05-13T19:07:44.174Z,2.90
2023-05-13T19:10:30.612Z,3.10
2023-05-13T19:13:19.818Z,2.87
2023-05-13T19:16:07.854Z,3.07
2023-05-13T19:18:54.543Z,2.90
2023-05-13T19:21:41.323Z,2.97
2023-05-13T19:24:27.717Z,2.70
2023-05-13T19:27:14.324Z,3.00
2023-05-13T19:30:01.438Z,2.43
2023-05-13T19:32:50.123Z,3.00
2023-05-13T19:35:37.151Z,2.80
2023-05-13T19:38:23.498Z,2.70
2023-05-13T19:41:09.930Z,3.00
2023-05-13T19:43:56.745Z,2.63
2023-05-13T19:46:43.596Z,2.60
2023-05-13T19:49:31.616Z,2.63
2023-05-13T19:52:18.421Z,2.30
2023-05-13T19:55:05.481Z,2.80
2023-05-13T19:57:52.190Z,2.77
2023-05-13T20:00:38.674Z,2.97
2023-05-13T20:03:25.548Z,2.73
2023-05-13T20:06:13.451Z,2.67
2023-05-13T20:09:00.843Z,2.87
2023-05-13T20:11:47.238Z,3.07
2023-05-13T20:14:44.692Z,3.07
2023-05-13T20:17:31.894Z,2.97
2023-05-13T20:20:19.152Z,3.33
2023-05-13T20:23:06.990Z,3.10
2023-05-13T20:25:53.983Z,3.60
2023-05-13T20:28:40.768Z,3.10
2023-05-13T20:31:27.392Z,3.13
2023-05-13T20:34:13.801Z,3.00
2023-05-13T20:37:00.161Z,3.10
2023-05-13T20:39:48.165Z,3.03
2023-05-13T20:42:34.977Z,4.20
2023-05-13T20:45:21.474Z,3.23
2023-05-13T20:48:09.012Z,3.40
2023-05-13T20:51:00.004Z,3.47
2023-05-13T20:53:47.352Z,3.30
2023-05-13T20:56:35.251Z,3.40
2023-05-13T20:59:21.555Z,3.90
2023-05-13T21:02:08.537Z,2.80
2023-05-13T21:04:54.857Z,3.63
2023-05-13T21:07:41.207Z,3.80
2023-05-13T21:10:27.763Z,3.50
2023-05-13T21:13:16.246Z,3.77
2023-05-13T21:16:04.906Z,3.93
2023-05-13T21:18:51.538Z,3.73
2023-05-13T21:21:38.487Z,3.47
2023-05-13T21:24:24.810Z,3.63
2023-05-13T21:27:11.151Z,3.60
2023-05-13T21:29:59.009Z,3.90
2023-05-13T21:32:45.455Z,4.07
2023-05-13T21:35:32.408Z,4.47
2023-05-13T21:38:19.001Z,4.10
2023-05-13T21:41:05.484Z,3.90
2023-05-13T21:43:51.989Z,4.27
2023-05-13T21:46:39.891Z,3.93
2023-05-13T21:49:26.560Z,3.90
2023-05-13T21:52:13.095Z,4.60
2023-05-13T21:55:00.205Z,4.87
2023-05-13T21:57:46.656Z,4.50
2023-05-13T22:00:33.172Z,4.43
2023-05-13T22:03:21.309Z,4.40
2023-05-13T22:06:08.114Z,4.87
2023-05-13T22:08:54.481Z,4.20
2023-05-13T22:11:41.043Z,5.20
2023-05-13T22:14:27.428Z,4.97
2023-05-13T22:17:13.980Z,5.37
2023-05-13T22:20:02.324Z,5.80
2023-05-13T22:22:48.866Z,4.73
2023-05-13T22:25:43.809Z,5.53
2023-05-13T22:28:31.219Z,4.77
2023-05-13T22:31:18.283Z,5.60
2023-05-13T22:34:05.078Z,5.67
2023-05-13T22:36:52.817Z,6.00
2023-05-13T22:39:39.545Z,5.83
2023-05-13T22:42:25.879Z,5.80
2023-05-13T22:45:13.162Z,5.63
2023-05-13T22:47:59.571Z,5.07
2023-05-13T22:50:46.433Z,5.03
2023-05-13T22:53:34.333Z,6.00
2023-05-13T22:56:21.916Z,5.37
2023-05-13T22:59:08.584Z,5.67
2023-05-13T23:01:55.202Z,5.70
2023-05-13T23:04:41.830Z,5.57
2023-05-13T23:07:28.335Z,5.67
2023-05-13T23:10:16.152Z,5.97
2023-05-13T23:13:05.654Z,5.40
2023-05-13T23:15:52.239Z,6.07
2023-05-13T23:18:38.558Z,5.87
2023-05-13T23:21:26.070Z,5.40
2023-05-13T23:24:12.530Z,5.40
2023-05-13T23:27:00.192Z,5.43
2023-05-13T23:29:46.827Z,5.40
2023-05-13T23:32:33.234Z,5.80
2023-05-13T23:35:19.690Z,5.30
2023-05-13T23:38:06.384Z,5.20
2023-05-13T23:40:53.962Z,5.77
2023-05-13T23:43:41.951Z,6.13
2023-05-13T23:46:28.668Z,6.00
2023-05-13T23:49:15.127Z,5.90
2023-05-13T23:52:01.449Z,5.80
2023-05-13T23:54:47.833Z,5.33
2023-05-13T23:57:34.326Z,5.33
